sensor_id;sensor_type;location;lat;lon;timestamp;pressure;altitude;pressure_sealevel;temperature;humidity
77124;BME280;66079;47.646;19.130;2023-02-26T00:02:00;99188.31;;;4.37;63.83
77124;BME280;66079;47.646;19.130;2023-02-26T00:05:04;99212.19;;;4.25;64.44
77124;BME280;66079;47.646;19.130;2023-02-26T00:08:07;99196.72;;;4.18;64.39
77124;BME280;66079;47.646;19.130;2023-02-26T00:11:11;99184.00;;;4.03;65.04
77124;BME280;66079;47.646;19.130;2023-02-26T00:14:15;99217.59;;;4.02;65.20
77124;BME280;66079;47.646;19.130;2023-02-26T00:20:29;99204.59;;;4.10;65.14
77124;BME280;66079;47.646;19.130;2023-02-26T00:23:32;99198.66;;;4.09;64.76
77124;BME280;66079;47.646;19.130;2023-02-26T00:26:35;99226.13;;;4.09;64.81
77124;BME280;66079;47.646;19.130;2023-02-26T00:29:38;99213.59;;;3.99;64.14
77124;BME280;66079;47.646;19.130;2023-02-26T00:32:41;99211.69;;;4.08;64.38
77124;BME280;66079;47.646;19.130;2023-02-26T00:35:44;99166.59;;;4.05;64.27
77124;BME280;66079;47.646;19.130;2023-02-26T00:41:55;99139.63;;;3.95;64.17
77124;BME280;66079;47.646;19.130;2023-02-26T00:44:58;99158.03;;;3.98;64.33
77124;BME280;66079;47.646;19.130;2023-02-26T00:48:21;99176.28;;;4.03;64.25
77124;BME280;66079;47.646;19.130;2023-02-26T00:51:35;99181.97;;;3.99;64.23
77124;BME280;66079;47.646;19.130;2023-02-26T00:54:42;99161.78;;;3.96;64.27
77124;BME280;66079;47.646;19.130;2023-02-26T00:57:45;99162.84;;;4.08;64.32
77124;BME280;66079;47.646;19.130;2023-02-26T01:00:47;99163.03;;;4.06;64.00
77124;BME280;66079;47.646;19.130;2023-02-26T01:03:50;99156.63;;;3.96;64.24
77124;BME280;66079;47.646;19.130;2023-02-26T01:06:56;99167.63;;;3.83;64.57
77124;BME280;66079;47.646;19.130;2023-02-26T01:09:59;99175.47;;;4.03;64.49
77124;BME280;66079;47.646;19.130;2023-02-26T01:13:02;99181.03;;;4.06;64.22
77124;BME280;66079;47.646;19.130;2023-02-26T01:16:08;99185.34;;;3.99;64.52
77124;BME280;66079;47.646;19.130;2023-02-26T01:19:31;99189.56;;;3.86;64.56
77124;BME280;66079;47.646;19.130;2023-02-26T01:22:49;99194.28;;;3.76;64.86
77124;BME280;66079;47.646;19.130;2023-02-26T01:26:06;99208.28;;;3.73;64.91
77124;BME280;66079;47.646;19.130;2023-02-26T01:29:12;99204.72;;;3.74;64.98
77124;BME280;66079;47.646;19.130;2023-02-26T01:32:18;99212.59;;;3.73;64.98
77124;BME280;66079;47.646;19.130;2023-02-26T01:42:16;99187.84;;;3.65;64.85
77124;BME280;66079;47.646;19.130;2023-02-26T01:45:33;99185.41;;;3.57;64.00
77124;BME280;66079;47.646;19.130;2023-02-26T01:48:49;99170.75;;;3.51;64.71
77124;BME280;66079;47.646;19.130;2023-02-26T01:54:57;99162.13;;;3.38;64.80
77124;BME280;66079;47.646;19.130;2023-02-26T01:58:00;99177.78;;;3.43;64.57
77124;BME280;66079;47.646;19.130;2023-02-26T02:01:04;99166.91;;;3.41;64.66
77124;BME280;66079;47.646;19.130;2023-02-26T02:04:12;99190.44;;;3.44;64.75
77124;BME280;66079;47.646;19.130;2023-02-26T02:07:16;99185.19;;;3.31;64.52
77124;BME280;66079;47.646;19.130;2023-02-26T02:10:21;99206.94;;;3.35;64.91
77124;BME280;66079;47.646;19.130;2023-02-26T02:16:56;99199.06;;;3.37;64.51
77124;BME280;66079;47.646;19.130;2023-02-26T02:23:39;99161.22;;;3.24;64.09
77124;BME280;66079;47.646;19.130;2023-02-26T02:33:20;99179.81;;;3.26;64.06
77124;BME280;66079;47.646;19.130;2023-02-26T02:36:46;99187.34;;;3.28;64.41
77124;BME280;66079;47.646;19.130;2023-02-26T02:40:07;99203.53;;;3.28;64.56
77124;BME280;66079;47.646;19.130;2023-02-26T02:43:20;99225.41;;;3.24;64.55
77124;BME280;66079;47.646;19.130;2023-02-26T02:46:27;99224.41;;;3.25;64.47
77124;BME280;66079;47.646;19.130;2023-02-26T02:49:49;99226.66;;;3.14;64.79
77124;BME280;66079;47.646;19.130;2023-02-26T02:53:00;99215.75;;;3.05;65.56
77124;BME280;66079;47.646;19.130;2023-02-26T02:59:36;99245.50;;;3.21;64.68
77124;BME280;66079;47.646;19.130;2023-02-26T03:05:48;99256.44;;;3.08;65.73
77124;BME280;66079;47.646;19.130;2023-02-26T03:08:52;99258.88;;;2.95;65.39
77124;BME280;66079;47.646;19.130;2023-02-26T03:11:54;99273.53;;;3.01;66.08
77124;BME280;66079;47.646;19.130;2023-02-26T03:14:58;99272.25;;;2.91;66.24
77124;BME280;66079;47.646;19.130;2023-02-26T03:18:12;99267.53;;;2.94;65.94
77124;BME280;66079;47.646;19.130;2023-02-26T03:24:56;99255.13;;;2.98;65.66
77124;BME280;66079;47.646;19.130;2023-02-26T03:28:33;99252.84;;;2.88;66.22
77124;BME280;66079;47.646;19.130;2023-02-26T03:31:52;99264.00;;;2.95;65.59
77124;BME280;66079;47.646;19.130;2023-02-26T03:35:17;99268.69;;;2.92;65.91
77124;BME280;66079;47.646;19.130;2023-02-26T03:38:43;99272.84;;;2.78;66.20
77124;BME280;66079;47.646;19.130;2023-02-26T03:41:55;99268.16;;;2.82;65.96
77124;BME280;66079;47.646;19.130;2023-02-26T03:45:13;99288.41;;;2.91;66.14
77124;BME280;66079;47.646;19.130;2023-02-26T03:48:21;99273.81;;;2.92;66.20
77124;BME280;66079;47.646;19.130;2023-02-26T03:51:25;99284.09;;;2.92;66.16
77124;BME280;66079;47.646;19.130;2023-02-26T03:54:52;99287.53;;;2.84;66.21
77124;BME280;66079;47.646;19.130;2023-02-26T03:58:18;99279.06;;;2.84;66.06
77124;BME280;66079;47.646;19.130;2023-02-26T04:01:52;99289.69;;;2.81;65.83
77124;BME280;66079;47.646;19.130;2023-02-26T04:05:05;99295.50;;;2.89;66.01
77124;BME280;66079;47.646;19.130;2023-02-26T04:08:10;99270.38;;;2.85;65.57
77124;BME280;66079;47.646;19.130;2023-02-26T04:11:16;99271.00;;;2.87;65.86
77124;BME280;66079;47.646;19.130;2023-02-26T04:14:20;99250.81;;;2.84;66.31
77124;BME280;66079;47.646;19.130;2023-02-26T04:17:22;99244.09;;;2.68;66.20
77124;BME280;66079;47.646;19.130;2023-02-26T04:20:27;99269.41;;;2.71;66.53
77124;BME280;66079;47.646;19.130;2023-02-26T04:23:29;99268.44;;;2.72;66.47
77124;BME280;66079;47.646;19.130;2023-02-26T04:26:33;99269.59;;;2.69;66.74
77124;BME280;66079;47.646;19.130;2023-02-26T04:29:35;99290.81;;;2.63;66.94
77124;BME280;66079;47.646;19.130;2023-02-26T04:32:39;99316.03;;;2.60;67.49
77124;BME280;66079;47.646;19.130;2023-02-26T04:35:44;99333.97;;;2.60;67.71
77124;BME280;66079;47.646;19.130;2023-02-26T04:38:46;99349.91;;;2.70;67.03
77124;BME280;66079;47.646;19.130;2023-02-26T04:41:50;99317.28;;;2.64;67.41
77124;BME280;66079;47.646;19.130;2023-02-26T04:44:52;99327.53;;;2.64;67.31
77124;BME280;66079;47.646;19.130;2023-02-26T04:47:55;99356.81;;;2.69;67.39
77124;BME280;66079;47.646;19.130;2023-02-26T04:50:58;99353.66;;;2.67;67.64
77124;BME280;66079;47.646;19.130;2023-02-26T04:54:01;99345.94;;;2.67;67.34
77124;BME280;66079;47.646;19.130;2023-02-26T04:57:06;99359.91;;;2.65;67.04
77124;BME280;66079;47.646;19.130;2023-02-26T05:00:10;99350.81;;;2.62;67.74
77124;BME280;66079;47.646;19.130;2023-02-26T05:03:14;99332.03;;;2.62;67.56
77124;BME280;66079;47.646;19.130;2023-02-26T05:06:17;99351.59;;;2.78;66.97
77124;BME280;66079;47.646;19.130;2023-02-26T05:09:19;99342.84;;;2.57;67.27
77124;BME280;66079;47.646;19.130;2023-02-26T05:12:23;99339.84;;;2.68;67.37
77124;BME280;66079;47.646;19.130;2023-02-26T05:15:25;99324.78;;;2.65;67.26
77124;BME280;66079;47.646;19.130;2023-02-26T05:18:28;99352.84;;;2.67;68.14
77124;BME280;66079;47.646;19.130;2023-02-26T05:21:31;99345.78;;;2.69;67.21
77124;BME280;66079;47.646;19.130;2023-02-26T05:24:33;99335.06;;;2.65;67.41
77124;BME280;66079;47.646;19.130;2023-02-26T05:27:36;99338.34;;;2.74;67.22
77124;BME280;66079;47.646;19.130;2023-02-26T05:30:39;99336.56;;;2.74;67.26
77124;BME280;66079;47.646;19.130;2023-02-26T05:33:42;99369.56;;;2.78;66.81
77124;BME280;66079;47.646;19.130;2023-02-26T05:36:45;99380.59;;;2.63;67.14
77124;BME280;66079;47.646;19.130;2023-02-26T05:39:47;99388.75;;;2.67;67.85
77124;BME280;66079;47.646;19.130;2023-02-26T05:42:50;99396.09;;;2.70;67.18
77124;BME280;66079;47.646;19.130;2023-02-26T05:45:53;99408.75;;;2.86;66.90
77124;BME280;66079;47.646;19.130;2023-02-26T05:48:56;99388.50;;;2.77;67.41
77124;BME280;66079;47.646;19.130;2023-02-26T05:51:59;99398.94;;;2.75;67.30
77124;BME280;66079;47.646;19.130;2023-02-26T05:55:02;99403.88;;;2.77;67.04
77124;BME280;66079;47.646;19.130;2023-02-26T05:58:05;99425.22;;;2.77;67.20
77124;BME280;66079;47.646;19.130;2023-02-26T06:01:08;99435.75;;;2.82;67.04
77124;BME280;66079;47.646;19.130;2023-02-26T06:04:11;99432.66;;;2.87;67.07
77124;BME280;66079;47.646;19.130;2023-02-26T06:07:13;99419.22;;;2.85;66.86
77124;BME280;66079;47.646;19.130;2023-02-26T06:10:16;99436.31;;;2.92;67.15
77124;BME280;66079;47.646;19.130;2023-02-26T06:13:19;99428.16;;;2.89;67.12
77124;BME280;66079;47.646;19.130;2023-02-26T06:16:22;99422.31;;;2.95;66.85
77124;BME280;66079;47.646;19.130;2023-02-26T06:19:25;99419.03;;;2.86;66.76
77124;BME280;66079;47.646;19.130;2023-02-26T06:22:28;99451.09;;;3.05;66.46
77124;BME280;66079;47.646;19.130;2023-02-26T06:25:30;99444.19;;;2.91;67.28
77124;BME280;66079;47.646;19.130;2023-02-26T06:28:33;99436.53;;;2.83;66.73
77124;BME280;66079;47.646;19.130;2023-02-26T06:31:35;99462.69;;;3.01;66.79
77124;BME280;66079;47.646;19.130;2023-02-26T06:34:38;99451.81;;;2.99;67.00
77124;BME280;66079;47.646;19.130;2023-02-26T06:37:40;99471.63;;;3.05;66.53
77124;BME280;66079;47.646;19.130;2023-02-26T06:40:43;99443.56;;;3.03;66.48
77124;BME280;66079;47.646;19.130;2023-02-26T06:43:46;99446.34;;;3.16;66.32
77124;BME280;66079;47.646;19.130;2023-02-26T06:46:48;99446.50;;;3.29;66.17
77124;BME280;66079;47.646;19.130;2023-02-26T06:49:51;99484.84;;;3.31;66.13
77124;BME280;66079;47.646;19.130;2023-02-26T06:52:53;99500.00;;;3.26;65.97
77124;BME280;66079;47.646;19.130;2023-02-26T06:55:56;99509.88;;;3.14;66.14
77124;BME280;66079;47.646;19.130;2023-02-26T06:58:58;99512.28;;;3.16;66.39
77124;BME280;66079;47.646;19.130;2023-02-26T07:02:01;99510.16;;;3.19;66.60
77124;BME280;66079;47.646;19.130;2023-02-26T07:05:04;99486.19;;;3.41;65.67
77124;BME280;66079;47.646;19.130;2023-02-26T07:08:07;99502.22;;;3.58;65.69
77124;BME280;66079;47.646;19.130;2023-02-26T07:11:10;99496.91;;;3.74;65.06
77124;BME280;66079;47.646;19.130;2023-02-26T07:14:13;99509.88;;;4.01;63.51
77124;BME280;66079;47.646;19.130;2023-02-26T07:17:16;99510.88;;;4.00;63.77
77124;BME280;66079;47.646;19.130;2023-02-26T07:20:22;99508.16;;;4.23;63.18
77124;BME280;66079;47.646;19.130;2023-02-26T07:23:24;99510.31;;;4.41;61.80
77124;BME280;66079;47.646;19.130;2023-02-26T07:26:27;99497.09;;;4.44;62.06
77124;BME280;66079;47.646;19.130;2023-02-26T07:29:29;99479.25;;;4.63;61.29
77124;BME280;66079;47.646;19.130;2023-02-26T07:32:32;99492.84;;;4.78;60.41
77124;BME280;66079;47.646;19.130;2023-02-26T07:35:35;99519.03;;;4.82;60.60
77124;BME280;66079;47.646;19.130;2023-02-26T07:38:37;99504.00;;;4.85;60.20
77124;BME280;66079;47.646;19.130;2023-02-26T07:41:40;99505.34;;;5.02;59.92
77124;BME280;66079;47.646;19.130;2023-02-26T07:44:49;99492.19;;;5.18;59.05
77124;BME280;66079;47.646;19.130;2023-02-26T07:47:51;99502.19;;;5.34;57.47
77124;BME280;66079;47.646;19.130;2023-02-26T07:50:54;99523.94;;;5.53;57.50
77124;BME280;66079;47.646;19.130;2023-02-26T07:53:56;99521.59;;;5.58;56.62
77124;BME280;66079;47.646;19.130;2023-02-26T07:56:59;99533.78;;;5.77;56.72
77124;BME280;66079;47.646;19.130;2023-02-26T08:00:03;99522.06;;;5.75;55.87
77124;BME280;66079;47.646;19.130;2023-02-26T08:03:13;99526.84;;;5.78;55.64
77124;BME280;66079;47.646;19.130;2023-02-26T08:06:16;99527.59;;;6.06;55.89
77124;BME280;66079;47.646;19.130;2023-02-26T08:09:20;99516.66;;;6.04;55.47
77124;BME280;66079;47.646;19.130;2023-02-26T08:12:23;99531.94;;;5.99;54.49
77124;BME280;66079;47.646;19.130;2023-02-26T08:15:25;99520.06;;;6.11;54.87
77124;BME280;66079;47.646;19.130;2023-02-26T08:18:28;99532.44;;;6.28;53.85
77124;BME280;66079;47.646;19.130;2023-02-26T08:21:30;99520.34;;;6.29;53.22
77124;BME280;66079;47.646;19.130;2023-02-26T08:24:33;99514.75;;;6.19;53.72
77124;BME280;66079;47.646;19.130;2023-02-26T08:27:36;99517.53;;;6.17;54.20
77124;BME280;66079;47.646;19.130;2023-02-26T08:30:39;99545.75;;;6.32;54.69
77124;BME280;66079;47.646;19.130;2023-02-26T08:33:42;99532.69;;;6.53;54.38
77124;BME280;66079;47.646;19.130;2023-02-26T08:36:44;99554.97;;;6.73;53.52
77124;BME280;66079;47.646;19.130;2023-02-26T08:39:47;99546.19;;;6.48;53.91
77124;BME280;66079;47.646;19.130;2023-02-26T08:42:50;99542.22;;;6.59;54.07
77124;BME280;66079;47.646;19.130;2023-02-26T08:45:54;99559.72;;;6.63;53.83
77124;BME280;66079;47.646;19.130;2023-02-26T08:48:57;99539.25;;;6.62;53.24
77124;BME280;66079;47.646;19.130;2023-02-26T08:51:59;99562.09;;;6.65;53.69
77124;BME280;66079;47.646;19.130;2023-02-26T08:55:03;99568.66;;;6.54;54.14
77124;BME280;66079;47.646;19.130;2023-02-26T08:58:05;99564.06;;;6.43;54.91
77124;BME280;66079;47.646;19.130;2023-02-26T09:01:09;99571.47;;;6.12;54.40
77124;BME280;66079;47.646;19.130;2023-02-26T09:04:11;99566.28;;;6.06;53.04
77124;BME280;66079;47.646;19.130;2023-02-26T09:07:14;99579.44;;;6.17;51.90
77124;BME280;66079;47.646;19.130;2023-02-26T09:10:17;99596.56;;;6.31;52.72
77124;BME280;66079;47.646;19.130;2023-02-26T09:13:19;99609.50;;;6.38;51.60
77124;BME280;66079;47.646;19.130;2023-02-26T09:16:21;99598.31;;;6.24;51.73
77124;BME280;66079;47.646;19.130;2023-02-26T09:19:25;99599.75;;;6.33;52.01
77124;BME280;66079;47.646;19.130;2023-02-26T09:22:28;99608.25;;;6.27;52.09
77124;BME280;66079;47.646;19.130;2023-02-26T09:25:31;99604.09;;;6.33;51.76
77124;BME280;66079;47.646;19.130;2023-02-26T09:28:33;99609.16;;;6.60;51.54
77124;BME280;66079;47.646;19.130;2023-02-26T09:31:36;99601.06;;;6.83;50.50
77124;BME280;66079;47.646;19.130;2023-02-26T09:34:38;99601.16;;;7.22;50.05
77124;BME280;66079;47.646;19.130;2023-02-26T09:37:41;99610.50;;;7.43;48.99
77124;BME280;66079;47.646;19.130;2023-02-26T09:40:54;99615.84;;;7.67;48.62
77124;BME280;66079;47.646;19.130;2023-02-26T09:44:18;99615.44;;;7.70;48.05
77124;BME280;66079;47.646;19.130;2023-02-26T09:47:46;99611.44;;;7.87;47.66
77124;BME280;66079;47.646;19.130;2023-02-26T09:50:55;99614.22;;;7.92;47.10
77124;BME280;66079;47.646;19.130;2023-02-26T09:53:59;99617.03;;;7.78;47.93
77124;BME280;66079;47.646;19.130;2023-02-26T09:57:10;99595.16;;;7.61;48.61
77124;BME280;66079;47.646;19.130;2023-02-26T10:04:02;99615.25;;;7.46;49.07
77124;BME280;66079;47.646;19.130;2023-02-26T10:07:28;99606.13;;;7.37;49.19
77124;BME280;66079;47.646;19.130;2023-02-26T10:10:54;99620.03;;;7.42;49.79
77124;BME280;66079;47.646;19.130;2023-02-26T10:14:14;99630.75;;;7.72;48.97
77124;BME280;66079;47.646;19.130;2023-02-26T10:17:25;99653.19;;;8.10;47.77
77124;BME280;66079;47.646;19.130;2023-02-26T10:20:40;99656.72;;;8.42;46.57
77124;BME280;66079;47.646;19.130;2023-02-26T10:23:47;99670.16;;;8.64;46.11
77124;BME280;66079;47.646;19.130;2023-02-26T10:27:02;99671.63;;;8.53;46.77
77124;BME280;66079;47.646;19.130;2023-02-26T10:30:31;99687.41;;;8.89;46.05
77124;BME280;66079;47.646;19.130;2023-02-26T10:33:39;99670.34;;;8.69;46.08
77124;BME280;66079;47.646;19.130;2023-02-26T10:37:00;99689.97;;;8.52;45.80
77124;BME280;66079;47.646;19.130;2023-02-26T10:40:23;99690.09;;;8.70;45.80
77124;BME280;66079;47.646;19.130;2023-02-26T10:43:39;99702.59;;;8.86;45.41
77124;BME280;66079;47.646;19.130;2023-02-26T10:47:24;99714.81;;;9.10;44.65
77124;BME280;66079;47.646;19.130;2023-02-26T10:50:30;99699.34;;;8.97;44.53
77124;BME280;66079;47.646;19.130;2023-02-26T10:53:33;99704.03;;;9.75;43.27
77124;BME280;66079;47.646;19.130;2023-02-26T10:56:36;99711.88;;;9.69;43.54
77124;BME280;66079;47.646;19.130;2023-02-26T10:59:38;99703.38;;;9.80;43.17
77124;BME280;66079;47.646;19.130;2023-02-26T11:02:44;99717.50;;;9.59;44.17
77124;BME280;66079;47.646;19.130;2023-02-26T11:05:47;99717.63;;;9.39;45.02
77124;BME280;66079;47.646;19.130;2023-02-26T11:08:52;99713.97;;;9.54;43.97
77124;BME280;66079;47.646;19.130;2023-02-26T11:12:04;99718.00;;;9.12;45.39
77124;BME280;66079;47.646;19.130;2023-02-26T11:15:12;99715.91;;;8.96;45.99
77124;BME280;66079;47.646;19.130;2023-02-26T11:18:18;99709.91;;;8.45;47.08
77124;BME280;66079;47.646;19.130;2023-02-26T11:21:35;99722.81;;;8.51;47.44
77124;BME280;66079;47.646;19.130;2023-02-26T11:24:42;99707.13;;;8.33;48.29
77124;BME280;66079;47.646;19.130;2023-02-26T11:27:50;99720.09;;;8.33;48.44
77124;BME280;66079;47.646;19.130;2023-02-26T11:30:54;99717.72;;;8.05;49.18
77124;BME280;66079;47.646;19.130;2023-02-26T11:34:02;99735.63;;;7.87;49.32
77124;BME280;66079;47.646;19.130;2023-02-26T11:37:06;99737.63;;;7.98;49.59
77124;BME280;66079;47.646;19.130;2023-02-26T11:43:21;99732.81;;;8.15;48.77
77124;BME280;66079;47.646;19.130;2023-02-26T11:46:25;99743.78;;;8.04;49.17
77124;BME280;66079;47.646;19.130;2023-02-26T11:49:28;99733.25;;;7.73;49.53
77124;BME280;66079;47.646;19.130;2023-02-26T11:55:38;99741.19;;;8.37;48.58
77124;BME280;66079;47.646;19.130;2023-02-26T11:58:45;99741.75;;;8.52;48.30
77124;BME280;66079;47.646;19.130;2023-02-26T12:01:50;99732.94;;;8.72;47.48
77124;BME280;66079;47.646;19.130;2023-02-26T12:04:57;99733.72;;;8.79;47.04
77124;BME280;66079;47.646;19.130;2023-02-26T12:08:12;99737.03;;;8.99;46.38
77124;BME280;66079;47.646;19.130;2023-02-26T12:14:47;99749.88;;;9.19;45.38
77124;BME280;66079;47.646;19.130;2023-02-26T12:18:35;99752.09;;;9.53;44.56
77124;BME280;66079;47.646;19.130;2023-02-26T12:22:02;99760.50;;;9.49;44.14
77124;BME280;66079;47.646;19.130;2023-02-26T12:28:55;99750.97;;;9.74;43.55
77124;BME280;66079;47.646;19.130;2023-02-26T12:42:42;99770.81;;;9.86;43.14
77124;BME280;66079;47.646;19.130;2023-02-26T12:45:59;99782.97;;;9.61;43.84
77124;BME280;66079;47.646;19.130;2023-02-26T12:53:11;99783.28;;;8.96;45.24
77124;BME280;66079;47.646;19.130;2023-02-26T12:59:52;99788.41;;;8.45;48.00
77124;BME280;66079;47.646;19.130;2023-02-26T13:09:57;99800.13;;;7.89;48.61
77124;BME280;66079;47.646;19.130;2023-02-26T13:13:12;99800.09;;;7.63;48.99
77124;BME280;66079;47.646;19.130;2023-02-26T13:16:38;99809.63;;;7.62;49.61
77124;BME280;66079;47.646;19.130;2023-02-26T13:19:48;99810.38;;;7.43;49.66
77124;BME280;66079;47.646;19.130;2023-02-26T13:22:58;99814.72;;;7.36;49.72
77124;BME280;66079;47.646;19.130;2023-02-26T13:26:08;99821.66;;;7.36;50.41
77124;BME280;66079;47.646;19.130;2023-02-26T13:32:26;99817.25;;;7.23;51.04
77124;BME280;66079;47.646;19.130;2023-02-26T13:35:36;99823.47;;;7.35;50.83
77124;BME280;66079;47.646;19.130;2023-02-26T13:39:28;99824.56;;;7.13;51.56
77124;BME280;66079;47.646;19.130;2023-02-26T13:42:50;99832.91;;;7.09;51.78
77124;BME280;66079;47.646;19.130;2023-02-26T13:49:17;99828.69;;;7.01;51.55
77124;BME280;66079;47.646;19.130;2023-02-26T13:52:28;99822.63;;;6.81;51.47
77124;BME280;66079;47.646;19.130;2023-02-26T13:55:51;99847.91;;;6.92;51.24
77124;BME280;66079;47.646;19.130;2023-02-26T14:12:22;99853.31;;;6.97;50.98
77124;BME280;66079;47.646;19.130;2023-02-26T14:15:40;99865.59;;;6.89;50.83
77124;BME280;66079;47.646;19.130;2023-02-26T14:21:53;99861.34;;;6.74;51.11
77124;BME280;66079;47.646;19.130;2023-02-26T14:25:19;99870.91;;;6.81;51.38
77124;BME280;66079;47.646;19.130;2023-02-26T14:34:53;99868.66;;;6.71;49.60
77124;BME280;66079;47.646;19.130;2023-02-26T14:38:00;99878.56;;;6.67;49.63
77124;BME280;66079;47.646;19.130;2023-02-26T14:41:09;99885.78;;;6.78;49.33
77124;BME280;66079;47.646;19.130;2023-02-26T14:44:24;99891.38;;;6.82;48.83
77124;BME280;66079;47.646;19.130;2023-02-26T14:47:28;99891.03;;;6.92;49.17
77124;BME280;66079;47.646;19.130;2023-02-26T14:50:49;99893.63;;;6.92;50.22
77124;BME280;66079;47.646;19.130;2023-02-26T14:57:50;99895.09;;;6.73;52.07
77124;BME280;66079;47.646;19.130;2023-02-26T15:04:39;99922.41;;;6.61;52.03
77124;BME280;66079;47.646;19.130;2023-02-26T15:24:31;99943.25;;;6.17;51.02
77124;BME280;66079;47.646;19.130;2023-02-26T15:27:34;99951.16;;;6.16;51.05
77124;BME280;66079;47.646;19.130;2023-02-26T15:30:46;99961.72;;;6.21;51.01
77124;BME280;66079;47.646;19.130;2023-02-26T15:33:54;99963.72;;;6.19;50.96
77124;BME280;66079;47.646;19.130;2023-02-26T15:36:58;99965.34;;;6.05;50.99
77124;BME280;66079;47.646;19.130;2023-02-26T15:40:05;99972.53;;;6.10;51.45
77124;BME280;66079;47.646;19.130;2023-02-26T15:43:14;99969.78;;;6.11;51.40
77124;BME280;66079;47.646;19.130;2023-02-26T15:46:26;99973.59;;;6.15;51.54
77124;BME280;66079;47.646;19.130;2023-02-26T15:49:39;99963.94;;;6.03;52.08
77124;BME280;66079;47.646;19.130;2023-02-26T15:52:44;99978.63;;;6.02;52.01
77124;BME280;66079;47.646;19.130;2023-02-26T15:55:54;99980.41;;;6.02;52.46
77124;BME280;66079;47.646;19.130;2023-02-26T15:59:00;99985.66;;;5.94;52.66
77124;BME280;66079;47.646;19.130;2023-02-26T16:02:10;99983.91;;;5.94;53.18
77124;BME280;66079;47.646;19.130;2023-02-26T16:05:14;99988.53;;;5.84;53.81
77124;BME280;66079;47.646;19.130;2023-02-26T16:08:17;99990.81;;;5.79;53.93
77124;BME280;66079;47.646;19.130;2023-02-26T16:11:21;99979.97;;;5.69;54.31
77124;BME280;66079;47.646;19.130;2023-02-26T16:14:28;100011.19;;;5.74;54.40
77124;BME280;66079;47.646;19.130;2023-02-26T16:17:37;100011.72;;;5.70;54.27
77124;BME280;66079;47.646;19.130;2023-02-26T16:20:45;100026.38;;;5.69;54.70
77124;BME280;66079;47.646;19.130;2023-02-26T16:23:52;100011.97;;;5.60;54.82
77124;BME280;66079;47.646;19.130;2023-02-26T16:26:59;100026.22;;;5.56;55.10
77124;BME280;66079;47.646;19.130;2023-02-26T16:30:06;100029.22;;;5.60;55.55
77124;BME280;66079;47.646;19.130;2023-02-26T16:33:15;100029.50;;;5.65;55.70
77124;BME280;66079;47.646;19.130;2023-02-26T16:36:20;100024.00;;;5.53;55.88
77124;BME280;66079;47.646;19.130;2023-02-26T16:39:30;100036.97;;;5.60;56.23
77124;BME280;66079;47.646;19.130;2023-02-26T16:42:45;100033.66;;;5.51;56.51
77124;BME280;66079;47.646;19.130;2023-02-26T16:45:55;100042.34;;;5.50;56.33
77124;BME280;66079;47.646;19.130;2023-02-26T16:52:19;100050.09;;;5.50;56.44
77124;BME280;66079;47.646;19.130;2023-02-26T16:55:25;100052.84;;;5.48;56.18
77124;BME280;66079;47.646;19.130;2023-02-26T16:58:29;100045.84;;;5.42;56.29
77124;BME280;66079;47.646;19.130;2023-02-26T17:01:59;100068.56;;;5.39;56.48
77124;BME280;66079;47.646;19.130;2023-02-26T17:05:25;100075.44;;;5.47;56.39
77124;BME280;66079;47.646;19.130;2023-02-26T17:08:41;100071.16;;;5.39;56.21
77124;BME280;66079;47.646;19.130;2023-02-26T17:11:44;100068.13;;;5.35;56.58
77124;BME280;66079;47.646;19.130;2023-02-26T17:14:54;100084.13;;;5.45;56.60
77124;BME280;66079;47.646;19.130;2023-02-26T17:17:58;100066.88;;;5.31;56.46
77124;BME280;66079;47.646;19.130;2023-02-26T17:21:02;100083.25;;;5.38;56.75
77124;BME280;66079;47.646;19.130;2023-02-26T17:24:06;100081.19;;;5.34;57.30
77124;BME280;66079;47.646;19.130;2023-02-26T17:27:16;100091.13;;;5.37;57.59
77124;BME280;66079;47.646;19.130;2023-02-26T17:30:22;100095.22;;;5.31;57.79
77124;BME280;66079;47.646;19.130;2023-02-26T17:33:31;100095.75;;;5.27;58.07
77124;BME280;66079;47.646;19.130;2023-02-26T17:36:33;100099.00;;;5.21;58.42
77124;BME280;66079;47.646;19.130;2023-02-26T17:39:39;100097.13;;;5.15;59.13
77124;BME280;66079;47.646;19.130;2023-02-26T17:42:42;100089.75;;;5.12;58.79
77124;BME280;66079;47.646;19.130;2023-02-26T17:45:45;100079.00;;;5.08;59.33
77124;BME280;66079;47.646;19.130;2023-02-26T17:48:48;100097.31;;;5.13;58.78
77124;BME280;66079;47.646;19.130;2023-02-26T17:51:51;100088.53;;;5.00;58.77
77124;BME280;66079;47.646;19.130;2023-02-26T17:54:55;100102.88;;;5.02;58.86
77124;BME280;66079;47.646;19.130;2023-02-26T17:57:59;100098.72;;;4.93;58.78
77124;BME280;66079;47.646;19.130;2023-02-26T18:01:04;100086.91;;;4.84;58.73
77124;BME280;66079;47.646;19.130;2023-02-26T18:04:07;100073.22;;;4.84;59.06
77124;BME280;66079;47.646;19.130;2023-02-26T18:07:14;100092.00;;;4.92;58.87
77124;BME280;66079;47.646;19.130;2023-02-26T18:10:21;100085.47;;;4.82;58.75
77124;BME280;66079;47.646;19.130;2023-02-26T18:13:27;100091.41;;;4.82;59.07
77124;BME280;66079;47.646;19.130;2023-02-26T18:16:32;100074.91;;;4.69;58.97
77124;BME280;66079;47.646;19.130;2023-02-26T18:19:36;100103.53;;;4.74;59.04
77124;BME280;66079;47.646;19.130;2023-02-26T18:22:39;100095.69;;;4.67;58.99
77124;BME280;66079;47.646;19.130;2023-02-26T18:25:45;100099.72;;;4.62;58.92
77124;BME280;66079;47.646;19.130;2023-02-26T18:28:49;100099.13;;;4.52;59.85
77124;BME280;66079;47.646;19.130;2023-02-26T18:31:52;100104.63;;;4.49;59.87
77124;BME280;66079;47.646;19.130;2023-02-26T18:34:55;100108.41;;;4.38;59.99
77124;BME280;66079;47.646;19.130;2023-02-26T18:37:58;100118.69;;;4.38;60.14
77124;BME280;66079;47.646;19.130;2023-02-26T18:41:02;100109.38;;;4.29;60.76
77124;BME280;66079;47.646;19.130;2023-02-26T18:44:05;100126.56;;;4.37;60.74
77124;BME280;66079;47.646;19.130;2023-02-26T18:47:09;100120.16;;;4.33;60.66
77124;BME280;66079;47.646;19.130;2023-02-26T18:50:16;100126.44;;;4.30;60.85